sensor_id;sensor_type;location;lat;lon;timestamp;P1;durP1;ratioP1;P2;durP2;ratioP2
21438;SDS011;10880;50.302;18.736;2023-11-19T00:28:59;58.60;;;22.23;;
21438;SDS011;10880;50.302;18.736;2023-11-19T00:31:31;54.53;;;21.43;;
21438;SDS011;10880;50.302;18.736;2023-11-19T00:33:59;63.50;;;23.27;;
21438;SDS011;10880;50.302;18.736;2023-11-19T00:36:28;65.43;;;22.70;;
21438;SDS011;10880;50.302;18.736;2023-11-19T00:39:15;56.07;;;21.60;;
21438;SDS011;10880;50.302;18.736;2023-11-19T00:41:47;51.67;;;16.93;;
21438;SDS011;10880;50.302;18.736;2023-11-19T00:44:28;49.17;;;20.20;;
21438;SDS011;10880;50.302;18.736;2023-11-19T00:46:59;51.47;;;20.43;;
21438;SDS011;10880;50.302;18.736;2023-11-19T00:49:26;44.20;;;18.57;;
21438;SDS011;10880;50.302;18.736;2023-11-19T00:51:56;41.93;;;18.03;;
21438;SDS011;10880;50.302;18.736;2023-11-19T00:54:25;48.73;;;19.97;;
21438;SDS011;10880;50.302;18.736;2023-11-19T00:56:53;52.87;;;20.27;;
21438;SDS011;10880;50.302;18.736;2023-11-19T00:59:35;59.77;;;22.40;;
21438;SDS011;10880;50.302;18.736;2023-11-19T01:02:03;62.27;;;23.47;;
21438;SDS011;10880;50.302;18.736;2023-11-19T01:04:37;60.60;;;22.57;;
21438;SDS011;10880;50.302;18.736;2023-11-19T01:07:06;56.17;;;22.90;;
21438;SDS011;10880;50.302;18.736;2023-11-19T01:09:38;59.47;;;24.63;;
21438;SDS011;10880;50.302;18.736;2023-11-19T01:12:09;60.70;;;24.33;;
21438;SDS011;10880;50.302;18.736;2023-11-19T01:14:41;61.87;;;23.27;;
21438;SDS011;10880;50.302;18.736;2023-11-19T01:17:12;59.33;;;24.00;;
21438;SDS011;10880;50.302;18.736;2023-11-19T01:19:58;67.73;;;24.77;;
21438;SDS011;10880;50.302;18.736;2023-11-19T01:22:29;63.60;;;24.70;;
21438;SDS011;10880;50.302;18.736;2023-11-19T01:24:57;64.77;;;24.13;;
21438;SDS011;10880;50.302;18.736;2023-11-19T01:27:24;70.53;;;25.50;;
21438;SDS011;10880;50.302;18.736;2023-11-19T01:29:52;63.07;;;23.47;;
21438;SDS011;10880;50.302;18.736;2023-11-19T01:32:23;58.43;;;23.47;;
21438;SDS011;10880;50.302;18.736;2023-11-19T01:34:54;62.07;;;23.80;;
21438;SDS011;10880;50.302;18.736;2023-11-19T01:37:20;55.93;;;21.50;;
21438;SDS011;10880;50.302;18.736;2023-11-19T01:39:47;39.20;;;16.87;;
21438;SDS011;10880;50.302;18.736;2023-11-19T01:42:14;46.30;;;17.63;;
21438;SDS011;10880;50.302;18.736;2023-11-19T01:44:41;48.80;;;19.73;;
21438;SDS011;10880;50.302;18.736;2023-11-19T01:47:08;55.73;;;20.67;;
21438;SDS011;10880;50.302;18.736;2023-11-19T01:49:35;62.17;;;22.93;;
21438;SDS011;10880;50.302;18.736;2023-11-19T01:52:02;58.63;;;22.73;;
21438;SDS011;10880;50.302;18.736;2023-11-19T01:54:28;60.33;;;23.77;;
21438;SDS011;10880;50.302;18.736;2023-11-19T01:56:56;56.37;;;21.17;;
21438;SDS011;10880;50.302;18.736;2023-11-19T01:59:23;62.80;;;23.23;;
21438;SDS011;10880;50.302;18.736;2023-11-19T02:01:53;54.00;;;21.53;;
21438;SDS011;10880;50.302;18.736;2023-11-19T02:04:20;60.37;;;23.57;;
21438;SDS011;10880;50.302;18.736;2023-11-19T02:06:48;61.60;;;23.80;;
21438;SDS011;10880;50.302;18.736;2023-11-19T02:09:18;66.87;;;24.27;;
21438;SDS011;10880;50.302;18.736;2023-11-19T02:11:45;66.10;;;25.50;;
21438;SDS011;10880;50.302;18.736;2023-11-19T02:14:17;63.90;;;23.47;;
21438;SDS011;10880;50.302;18.736;2023-11-19T02:16:44;60.23;;;23.70;;
21438;SDS011;10880;50.302;18.736;2023-11-19T02:19:10;58.63;;;23.83;;
21438;SDS011;10880;50.302;18.736;2023-11-19T02:21:37;47.20;;;18.53;;
21438;SDS011;10880;50.302;18.736;2023-11-19T02:24:05;42.17;;;16.37;;
21438;SDS011;10880;50.302;18.736;2023-11-19T02:26:44;55.23;;;23.00;;
21438;SDS011;10880;50.302;18.736;2023-11-19T02:29:18;77.60;;;28.37;;
21438;SDS011;10880;50.302;18.736;2023-11-19T02:31:45;77.60;;;31.57;;
21438;SDS011;10880;50.302;18.736;2023-11-19T02:34:12;91.10;;;34.20;;
21438;SDS011;10880;50.302;18.736;2023-11-19T02:36:39;99.47;;;38.37;;
21438;SDS011;10880;50.302;18.736;2023-11-19T02:39:07;84.20;;;34.90;;
21438;SDS011;10880;50.302;18.736;2023-11-19T02:41:37;78.20;;;33.30;;
21438;SDS011;10880;50.302;18.736;2023-11-19T02:44:05;83.07;;;33.23;;
21438;SDS011;10880;50.302;18.736;2023-11-19T02:46:33;78.37;;;32.63;;
21438;SDS011;10880;50.302;18.736;2023-11-19T02:48:59;72.90;;;29.87;;
21438;SDS011;10880;50.302;18.736;2023-11-19T02:51:26;77.93;;;31.77;;
21438;SDS011;10880;50.302;18.736;2023-11-19T02:53:53;60.03;;;25.07;;
21438;SDS011;10880;50.302;18.736;2023-11-19T02:56:19;55.53;;;24.03;;
21438;SDS011;10880;50.302;18.736;2023-11-19T02:58:51;59.80;;;26.37;;
21438;SDS011;10880;50.302;18.736;2023-11-19T03:01:22;54.07;;;23.03;;
21438;SDS011;10880;50.302;18.736;2023-11-19T03:03:57;47.13;;;20.73;;
21438;SDS011;10880;50.302;18.736;2023-11-19T03:06:24;49.77;;;21.20;;
21438;SDS011;10880;50.302;18.736;2023-11-19T03:08:52;62.73;;;27.03;;
21438;SDS011;10880;50.302;18.736;2023-11-19T03:11:21;61.10;;;26.17;;
21438;SDS011;10880;50.302;18.736;2023-11-19T03:13:47;63.43;;;26.57;;
21438;SDS011;10880;50.302;18.736;2023-11-19T03:16:14;60.53;;;26.87;;
21438;SDS011;10880;50.302;18.736;2023-11-19T03:18:44;59.83;;;25.10;;
21438;SDS011;10880;50.302;18.736;2023-11-19T03:21:10;56.53;;;23.17;;
21438;SDS011;10880;50.302;18.736;2023-11-19T03:23:39;47.33;;;20.50;;
21438;SDS011;10880;50.302;18.736;2023-11-19T03:26:07;39.97;;;19.13;;
21438;SDS011;10880;50.302;18.736;2023-11-19T03:28:34;38.63;;;16.63;;
21438;SDS011;10880;50.302;18.736;2023-11-19T03:31:04;41.17;;;16.60;;
21438;SDS011;10880;50.302;18.736;2023-11-19T03:33:32;42.17;;;18.27;;
21438;SDS011;10880;50.302;18.736;2023-11-19T03:35:59;55.77;;;22.43;;
21438;SDS011;10880;50.302;18.736;2023-11-19T03:38:25;58.07;;;23.23;;
21438;SDS011;10880;50.302;18.736;2023-11-19T03:40:52;51.77;;;21.77;;
21438;SDS011;10880;50.302;18.736;2023-11-19T03:43:19;50.47;;;23.00;;
21438;SDS011;10880;50.302;18.736;2023-11-19T03:45:46;55.30;;;23.27;;
21438;SDS011;10880;50.302;18.736;2023-11-19T03:48:14;50.77;;;21.50;;
21438;SDS011;10880;50.302;18.736;2023-11-19T03:50:44;43.50;;;19.53;;
21438;SDS011;10880;50.302;18.736;2023-11-19T03:53:11;40.07;;;17.77;;
21438;SDS011;10880;50.302;18.736;2023-11-19T03:55:38;44.97;;;19.07;;
21438;SDS011;10880;50.302;18.736;2023-11-19T03:58:05;47.03;;;19.90;;
21438;SDS011;10880;50.302;18.736;2023-11-19T04:00:32;47.70;;;20.30;;
21438;SDS011;10880;50.302;18.736;2023-11-19T04:02:58;49.57;;;20.50;;
21438;SDS011;10880;50.302;18.736;2023-11-19T04:05:26;44.30;;;18.93;;
21438;SDS011;10880;50.302;18.736;2023-11-19T04:07:52;48.73;;;20.10;;
21438;SDS011;10880;50.302;18.736;2023-11-19T04:10:19;41.80;;;18.20;;
21438;SDS011;10880;50.302;18.736;2023-11-19T04:12:48;41.57;;;18.10;;
21438;SDS011;10880;50.302;18.736;2023-11-19T04:15:15;37.67;;;17.60;;
21438;SDS011;10880;50.302;18.736;2023-11-19T04:17:42;42.87;;;18.93;;
21438;SDS011;10880;50.302;18.736;2023-11-19T04:20:08;47.30;;;20.80;;
21438;SDS011;10880;50.302;18.736;2023-11-19T04:22:39;41.40;;;17.60;;
21438;SDS011;10880;50.302;18.736;2023-11-19T04:25:06;33.80;;;16.07;;
21438;SDS011;10880;50.302;18.736;2023-11-19T04:27:34;41.00;;;17.50;;
21438;SDS011;10880;50.302;18.736;2023-11-19T04:30:01;35.50;;;15.83;;
21438;SDS011;10880;50.302;18.736;2023-11-19T04:32:29;41.13;;;17.57;;
21438;SDS011;10880;50.302;18.736;2023-11-19T04:34:56;36.20;;;16.77;;
21438;SDS011;10880;50.302;18.736;2023-11-19T04:37:23;36.90;;;16.60;;
21438;SDS011;10880;50.302;18.736;2023-11-19T04:39:49;41.03;;;18.63;;
21438;SDS011;10880;50.302;18.736;2023-11-19T04:42:16;40.50;;;18.33;;
21438;SDS011;10880;50.302;18.736;2023-11-19T04:44:43;45.97;;;19.07;;
21438;SDS011;10880;50.302;18.736;2023-11-19T04:47:11;40.93;;;18.07;;
21438;SDS011;10880;50.302;18.736;2023-11-19T04:49:41;30.73;;;15.17;;
21438;SDS011;10880;50.302;18.736;2023-11-19T04:52:09;31.67;;;15.30;;
21438;SDS011;10880;50.302;18.736;2023-11-19T04:54:41;40.90;;;19.17;;
21438;SDS011;10880;50.302;18.736;2023-11-19T04:57:09;38.87;;;18.00;;
21438;SDS011;10880;50.302;18.736;2023-11-19T04:59:37;38.97;;;18.17;;
21438;SDS011;10880;50.302;18.736;2023-11-19T05:02:04;32.00;;;15.63;;
21438;SDS011;10880;50.302;18.736;2023-11-19T05:04:32;32.07;;;15.67;;
21438;SDS011;10880;50.302;18.736;2023-11-19T05:06:59;32.40;;;15.07;;
21438;SDS011;10880;50.302;18.736;2023-11-19T05:09:26;38.10;;;16.50;;
21438;SDS011;10880;50.302;18.736;2023-11-19T05:11:52;32.23;;;15.90;;
21438;SDS011;10880;50.302;18.736;2023-11-19T05:14:20;36.70;;;15.67;;
21438;SDS011;10880;50.302;18.736;2023-11-19T05:16:47;33.77;;;15.70;;
21438;SDS011;10880;50.302;18.736;2023-11-19T05:19:14;32.37;;;14.70;;
21438;SDS011;10880;50.302;18.736;2023-11-19T05:21:44;38.30;;;17.60;;
21438;SDS011;10880;50.302;18.736;2023-11-19T05:24:11;35.43;;;16.07;;
21438;SDS011;10880;50.302;18.736;2023-11-19T05:26:38;35.30;;;16.80;;
21438;SDS011;10880;50.302;18.736;2023-11-19T05:29:04;29.93;;;14.97;;
21438;SDS011;10880;50.302;18.736;2023-11-19T05:31:31;38.07;;;17.90;;
21438;SDS011;10880;50.302;18.736;2023-11-19T05:33:57;36.43;;;17.23;;
21438;SDS011;10880;50.302;18.736;2023-11-19T05:36:25;32.43;;;16.73;;
21438;SDS011;10880;50.302;18.736;2023-11-19T05:38:55;34.77;;;16.37;;
21438;SDS011;10880;50.302;18.736;2023-11-19T05:41:22;30.63;;;15.20;;
21438;SDS011;10880;50.302;18.736;2023-11-19T05:43:49;32.00;;;15.43;;
21438;SDS011;10880;50.302;18.736;2023-11-19T05:46:16;29.57;;;14.37;;
21438;SDS011;10880;50.302;18.736;2023-11-19T05:48:43;24.73;;;11.60;;
21438;SDS011;10880;50.302;18.736;2023-11-19T05:51:11;22.10;;;11.73;;
21438;SDS011;10880;50.302;18.736;2023-11-19T05:53:37;29.43;;;14.50;;
21438;SDS011;10880;50.302;18.736;2023-11-19T05:56:04;30.83;;;15.13;;
21438;SDS011;10880;50.302;18.736;2023-11-19T05:58:33;31.77;;;15.23;;
21438;SDS011;10880;50.302;18.736;2023-11-19T06:01:03;30.23;;;14.77;;
21438;SDS011;10880;50.302;18.736;2023-11-19T06:03:33;33.70;;;16.00;;
21438;SDS011;10880;50.302;18.736;2023-11-19T06:06:06;33.37;;;15.97;;
21438;SDS011;10880;50.302;18.736;2023-11-19T06:08:34;34.67;;;16.97;;
21438;SDS011;10880;50.302;18.736;2023-11-19T06:11:02;34.43;;;17.30;;
21438;SDS011;10880;50.302;18.736;2023-11-19T06:13:29;32.13;;;15.30;;
21438;SDS011;10880;50.302;18.736;2023-11-19T06:15:59;28.73;;;15.13;;
21438;SDS011;10880;50.302;18.736;2023-11-19T06:18:27;34.77;;;15.77;;
21438;SDS011;10880;50.302;18.736;2023-11-19T06:20:58;35.17;;;16.83;;
21438;SDS011;10880;50.302;18.736;2023-11-19T06:23:34;32.33;;;15.63;;
21438;SDS011;10880;50.302;18.736;2023-11-19T06:26:01;30.40;;;14.90;;
21438;SDS011;10880;50.302;18.736;2023-11-19T06:28:31;34.63;;;16.97;;
21438;SDS011;10880;50.302;18.736;2023-11-19T06:30:59;32.03;;;15.80;;
21438;SDS011;10880;50.302;18.736;2023-11-19T06:33:29;37.70;;;16.87;;
21438;SDS011;10880;50.302;18.736;2023-11-19T06:35:56;33.70;;;15.63;;
21438;SDS011;10880;50.302;18.736;2023-11-19T06:38:54;29.77;;;15.40;;
21438;SDS011;10880;50.302;18.736;2023-11-19T06:41:21;35.43;;;17.17;;
21438;SDS011;10880;50.302;18.736;2023-11-19T06:43:50;31.83;;;15.90;;
21438;SDS011;10880;50.302;18.736;2023-11-19T06:46:21;31.70;;;15.73;;
21438;SDS011;10880;50.302;18.736;2023-11-19T06:48:55;33.97;;;16.53;;
21438;SDS011;10880;50.302;18.736;2023-11-19T06:51:23;32.60;;;15.27;;
21438;SDS011;10880;50.302;18.736;2023-11-19T06:53:52;32.50;;;16.23;;
21438;SDS011;10880;50.302;18.736;2023-11-19T06:56:23;26.00;;;12.87;;
21438;SDS011;10880;50.302;18.736;2023-11-19T06:58:57;31.97;;;16.20;;
21438;SDS011;10880;50.302;18.736;2023-11-19T07:01:34;32.50;;;16.47;;
21438;SDS011;10880;50.302;18.736;2023-11-19T07:04:03;29.17;;;14.77;;
21438;SDS011;10880;50.302;18.736;2023-11-19T07:06:35;29.57;;;14.43;;
21438;SDS011;10880;50.302;18.736;2023-11-19T07:09:03;32.23;;;16.30;;
21438;SDS011;10880;50.302;18.736;2023-11-19T07:11:35;33.00;;;15.80;;
21438;SDS011;10880;50.302;18.736;2023-11-19T07:14:05;34.43;;;17.53;;
21438;SDS011;10880;50.302;18.736;2023-11-19T07:16:34;37.10;;;18.10;;
21438;SDS011;10880;50.302;18.736;2023-11-19T07:19:07;39.10;;;19.27;;
21438;SDS011;10880;50.302;18.736;2023-11-19T07:21:33;31.90;;;15.63;;
21438;SDS011;10880;50.302;18.736;2023-11-19T07:24:01;30.40;;;15.27;;
21438;SDS011;10880;50.302;18.736;2023-11-19T07:26:28;36.43;;;17.43;;
21438;SDS011;10880;50.302;18.736;2023-11-19T07:28:55;43.03;;;19.80;;
21438;SDS011;10880;50.302;18.736;2023-11-19T07:31:21;35.83;;;17.77;;
21438;SDS011;10880;50.302;18.736;2023-11-19T07:33:49;39.40;;;18.43;;
21438;SDS011;10880;50.302;18.736;2023-11-19T07:36:16;40.33;;;18.60;;
21438;SDS011;10880;50.302;18.736;2023-11-19T07:38:43;38.63;;;17.33;;
21438;SDS011;10880;50.302;18.736;2023-11-19T07:41:09;36.57;;;18.23;;
21438;SDS011;10880;50.302;18.736;2023-11-19T07:43:47;32.97;;;16.67;;
21438;SDS011;10880;50.302;18.736;2023-11-19T07:46:15;32.90;;;16.10;;
21438;SDS011;10880;50.302;18.736;2023-11-19T07:48:41;31.30;;;15.70;;
21438;SDS011;10880;50.302;18.736;2023-11-19T07:51:10;40.67;;;20.07;;
21438;SDS011;10880;50.302;18.736;2023-11-19T07:53:39;44.47;;;21.57;;
21438;SDS011;10880;50.302;18.736;2023-11-19T07:56:07;35.60;;;18.13;;
21438;SDS011;10880;50.302;18.736;2023-11-19T07:58:34;37.47;;;18.53;;
21438;SDS011;10880;50.302;18.736;2023-11-19T08:01:00;40.10;;;18.23;;
21438;SDS011;10880;50.302;18.736;2023-11-19T08:03:30;35.13;;;17.57;;
21438;SDS011;10880;50.302;18.736;2023-11-19T08:05:56;36.20;;;16.13;;
21438;SDS011;10880;50.302;18.736;2023-11-19T08:08:23;38.07;;;18.03;;
21438;SDS011;10880;50.302;18.736;2023-11-19T08:10:50;35.07;;;17.97;;
21438;SDS011;10880;50.302;18.736;2023-11-19T08:13:18;36.43;;;18.57;;
21438;SDS011;10880;50.302;18.736;2023-11-19T08:15:45;41.93;;;19.83;;
21438;SDS011;10880;50.302;18.736;2023-11-19T08:18:13;36.73;;;18.93;;
21438;SDS011;10880;50.302;18.736;2023-11-19T08:20:39;37.00;;;17.13;;
21438;SDS011;10880;50.302;18.736;2023-11-19T08:23:07;55.80;;;25.43;;
21438;SDS011;10880;50.302;18.736;2023-11-19T08:25:34;49.00;;;22.93;;
21438;SDS011;10880;50.302;18.736;2023-11-19T08:28:03;43.57;;;19.60;;
21438;SDS011;10880;50.302;18.736;2023-11-19T08:30:30;34.20;;;17.93;;
21438;SDS011;10880;50.302;18.736;2023-11-19T08:32:56;32.27;;;15.27;;
21438;SDS011;10880;50.302;18.736;2023-11-19T08:35:24;35.17;;;16.93;;
21438;SDS011;10880;50.302;18.736;2023-11-19T08:37:53;35.93;;;16.00;;
21438;SDS011;10880;50.302;18.736;2023-11-19T08:40:20;27.70;;;13.33;;
21438;SDS011;10880;50.302;18.736;2023-11-19T08:42:48;30.73;;;15.07;;
21438;SDS011;10880;50.302;18.736;2023-11-19T08:45:16;29.93;;;15.30;;
21438;SDS011;10880;50.302;18.736;2023-11-19T08:47:43;25.10;;;12.53;;
21438;SDS011;10880;50.302;18.736;2023-11-19T08:50:11;29.03;;;14.10;;
21438;SDS011;10880;50.302;18.736;2023-11-19T08:52:39;35.00;;;16.90;;
21438;SDS011;10880;50.302;18.736;2023-11-19T08:55:05;32.70;;;14.93;;
21438;SDS011;10880;50.302;18.736;2023-11-19T08:57:33;33.00;;;16.03;;
21438;SDS011;10880;50.302;18.736;2023-11-19T08:59:59;32.63;;;16.43;;
21438;SDS011;10880;50.302;18.736;2023-11-19T09:02:27;62.77;;;30.43;;
21438;SDS011;10880;50.302;18.736;2023-11-19T09:04:53;61.23;;;29.30;;
21438;SDS011;10880;50.302;18.736;2023-11-19T09:07:20;41.40;;;22.20;;
21438;SDS011;10880;50.302;18.736;2023-11-19T09:09:48;32.70;;;17.10;;
21438;SDS011;10880;50.302;18.736;2023-11-19T09:12:15;30.07;;;15.97;;
21438;SDS011;10880;50.302;18.736;2023-11-19T09:14:42;28.27;;;15.17;;
21438;SDS011;10880;50.302;18.736;2023-11-19T09:17:09;31.30;;;15.47;;
21438;SDS011;10880;50.302;18.736;2023-11-19T09:19:36;36.90;;;18.33;;
21438;SDS011;10880;50.302;18.736;2023-11-19T09:22:05;33.97;;;17.33;;
21438;SDS011;10880;50.302;18.736;2023-11-19T09:24:32;30.10;;;15.33;;
21438;SDS011;10880;50.302;18.736;2023-11-19T09:26:59;38.20;;;18.47;;
21438;SDS011;10880;50.302;18.736;2023-11-19T09:29:26;35.80;;;18.03;;
21438;SDS011;10880;50.302;18.736;2023-11-19T09:31:52;33.33;;;15.97;;
21438;SDS011;10880;50.302;18.736;2023-11-19T09:34:19;36.00;;;17.90;;
21438;SDS011;10880;50.302;18.736;2023-11-19T09:36:45;42.67;;;19.57;;
21438;SDS011;10880;50.302;18.736;2023-11-19T09:39:12;44.07;;;19.00;;
21438;SDS011;10880;50.302;18.736;2023-11-19T09:41:46;41.13;;;18.87;;
21438;SDS011;10880;50.302;18.736;2023-11-19T09:44:13;41.93;;;20.17;;
21438;SDS011;10880;50.302;18.736;2023-11-19T09:46:44;40.83;;;19.07;;
21438;SDS011;10880;50.302;18.736;2023-11-19T09:49:11;38.33;;;16.37;;
21438;SDS011;10880;50.302;18.736;2023-11-19T09:51:40;44.63;;;18.97;;
21438;SDS011;10880;50.302;18.736;2023-11-19T09:54:09;48.63;;;20.07;;
21438;SDS011;10880;50.302;18.736;2023-11-19T09:56:38;47.43;;;20.27;;
21438;SDS011;10880;50.302;18.736;2023-11-19T09:59:07;38.73;;;18.17;;
21438;SDS011;10880;50.302;18.736;2023-11-19T10:01:37;45.40;;;19.57;;
21438;SDS011;10880;50.302;18.736;2023-11-19T10:04:06;43.67;;;20.00;;
21438;SDS011;10880;50.302;18.736;2023-11-19T10:06:32;52.23;;;22.67;;
21438;SDS011;10880;50.302;18.736;2023-11-19T10:08:59;50.77;;;22.13;;
21438;SDS011;10880;50.302;18.736;2023-11-19T10:11:26;40.33;;;18.80;;
21438;SDS011;10880;50.302;18.736;2023-11-19T10:13:53;36.77;;;16.27;;
21438;SDS011;10880;50.302;18.736;2023-11-19T10:16:20;41.73;;;19.37;;
21438;SDS011;10880;50.302;18.736;2023-11-19T10:18:48;38.97;;;17.83;;
21438;SDS011;10880;50.302;18.736;2023-11-19T10:21:19;41.23;;;18.80;;
21438;SDS011;10880;50.302;18.736;2023-11-19T10:23:50;38.87;;;18.27;;
21438;SDS011;10880;50.302;18.736;2023-11-19T10:26:29;32.33;;;14.97;;
21438;SDS011;10880;50.302;18.736;2023-11-19T10:28:56;34.47;;;14.90;;
21438;SDS011;10880;50.302;18.736;2023-11-19T10:31:24;33.97;;;15.33;;
21438;SDS011;10880;50.302;18.736;2023-11-19T10:33:52;22.57;;;11.47;;
21438;SDS011;10880;50.302;18.736;2023-11-19T10:36:23;26.33;;;11.60;;
21438;SDS011;10880;50.302;18.736;2023-11-19T10:39:05;26.20;;;12.10;;
21438;SDS011;10880;50.302;18.736;2023-11-19T10:41:32;26.27;;;12.73;;
21438;SDS011;10880;50.302;18.736;2023-11-19T10:44:02;22.47;;;11.17;;
21438;SDS011;10880;50.302;18.736;2023-11-19T10:46:36;24.80;;;11.83;;
21438;SDS011;10880;50.302;18.736;2023-11-19T10:49:05;27.10;;;12.53;;
21438;SDS011;10880;50.302;18.736;2023-11-19T10:51:32;29.33;;;14.23;;
21438;SDS011;10880;50.302;18.736;2023-11-19T10:54:01;31.03;;;14.37;;
21438;SDS011;10880;50.302;18.736;2023-11-19T10:56:33;25.07;;;12.23;;
21438;SDS011;10880;50.302;18.736;2023-11-19T10:59:00;27.73;;;12.53;;
21438;SDS011;10880;50.302;18.736;2023-11-19T11:01:32;23.87;;;12.17;;
21438;SDS011;10880;50.302;18.736;2023-11-19T11:04:15;27.63;;;14.17;;
21438;SDS011;10880;50.302;18.736;2023-11-19T11:06:50;31.93;;;14.50;;
21438;SDS011;10880;50.302;18.736;2023-11-19T11:09:19;30.67;;;14.07;;
21438;SDS011;10880;50.302;18.736;2023-11-19T11:11:49;29.80;;;12.87;;
21438;SDS011;10880;50.302;18.736;2023-11-19T11:14:19;34.20;;;15.97;;
21438;SDS011;10880;50.302;18.736;2023-11-19T11:16:48;33.20;;;14.67;;
21438;SDS011;10880;50.302;18.736;2023-11-19T11:19:16;36.07;;;17.10;;
21438;SDS011;10880;50.302;18.736;2023-11-19T11:21:46;29.57;;;14.60;;
21438;SDS011;10880;50.302;18.736;2023-11-19T11:37:39;30.50;;;13.33;;
21438;SDS011;10880;50.302;18.736;2023-11-19T11:40:32;22.40;;;10.77;;
21438;SDS011;10880;50.302;18.736;2023-11-19T11:42:59;24.87;;;12.27;;
21438;SDS011;10880;50.302;18.736;2023-11-19T11:45:39;26.20;;;12.27;;
21438;SDS011;10880;50.302;18.736;2023-11-19T11:48:14;30.77;;;13.27;;
21438;SDS011;10880;50.302;18.736;2023-11-19T11:50:52;37.93;;;15.17;;
21438;SDS011;10880;50.302;18.736;2023-11-19T11:53:20;41.43;;;17.27;;
21438;SDS011;10880;50.302;18.736;2023-11-19T11:58:25;39.70;;;17.73;;
21438;SDS011;10880;50.302;18.736;2023-11-19T12:00:57;37.47;;;18.57;;
21438;SDS011;10880;50.302;18.736;2023-11-19T12:03:26;40.43;;;18.57;;
21438;SDS011;10880;50.302;18.736;2023-11-19T12:05:55;42.57;;;18.20;;
21438;SDS011;10880;50.302;18.736;2023-11-19T12:08:25;38.97;;;17.03;;
21438;SDS011;10880;50.302;18.736;2023-11-19T12:10:54;45.07;;;19.47;;
21438;SDS011;10880;50.302;18.736;2023-11-19T12:13:29;45.17;;;20.60;;
21438;SDS011;10880;50.302;18.736;2023-11-19T12:16:29;56.50;;;23.30;;
21438;SDS011;10880;50.302;18.736;2023-11-19T12:19:02;48.67;;;20.10;;
21438;SDS011;10880;50.302;18.736;2023-11-19T12:21:31;48.77;;;21.37;;
21438;SDS011;10880;50.302;18.736;2023-11-19T12:23:58;42.13;;;18.57;;
21438;SDS011;10880;50.302;18.736;2023-11-19T12:26:34;40.83;;;17.80;;
21438;SDS011;10880;50.302;18.736;2023-11-19T12:29:01;33.87;;;16.03;;
21438;SDS011;10880;50.302;18.736;2023-11-19T12:31:30;38.53;;;17.80;;
21438;SDS011;10880;50.302;18.736;2023-11-19T12:33:57;31.83;;;14.87;;
21438;SDS011;10880;50.302;18.736;2023-11-19T12:36:23;38.80;;;16.30;;
21438;SDS011;10880;50.302;18.736;2023-11-19T12:38:50;33.40;;;16.17;;
21438;SDS011;10880;50.302;18.736;2023-11-19T12:41:17;33.40;;;16.13;;
21438;SDS011;10880;50.302;18.736;2023-11-19T12:43:47;37.90;;;17.00;;
21438;SDS011;10880;50.302;18.736;2023-11-19T12:48:48;32.23;;;13.97;;
21438;SDS011;10880;50.302;18.736;2023-11-19T12:51:15;25.37;;;12.33;;
21438;SDS011;10880;50.302;18.736;2023-11-19T12:53:48;24.47;;;11.37;;
21438;SDS011;10880;50.302;18.736;2023-11-19T12:56:22;35.87;;;16.13;;
21438;SDS011;10880;50.302;18.736;2023-11-19T12:58:49;39.67;;;18.17;;
21438;SDS011;10880;50.302;18.736;2023-11-19T13:01:17;38.33;;;18.77;;
21438;SDS011;10880;50.302;18.736;2023-11-19T13:03:46;33.83;;;15.87;;
21438;SDS011;10880;50.302;18.736;2023-11-19T13:06:14;28.97;;;13.10;;
21438;SDS011;10880;50.302;18.736;2023-11-19T13:08:45;31.80;;;15.53;;
21438;SDS011;10880;50.302;18.736;2023-11-19T13:11:33;32.47;;;15.00;;
21438;SDS011;10880;50.302;18.736;2023-11-19T13:14:07;26.10;;;12.33;;
21438;SDS011;10880;50.302;18.736;2023-11-19T13:16:36;30.63;;;14.50;;
21438;SDS011;10880;50.302;18.736;2023-11-19T13:19:03;28.70;;;13.27;;
21438;SDS011;10880;50.302;18.736;2023-11-19T13:21:32;33.20;;;15.07;;
21438;SDS011;10880;50.302;18.736;2023-11-19T13:24:19;27.93;;;13.30;;
21438;SDS011;10880;50.302;18.736;2023-11-19T13:26:46;30.37;;;15.60;;
21438;SDS011;10880;50.302;18.736;2023-11-19T13:29:13;26.93;;;13.50;;
21438;SDS011;10880;50.302;18.736;2023-11-19T13:31:40;23.97;;;12.40;;
21438;SDS011;10880;50.302;18.736;2023-11-19T13:34:07;28.97;;;14.00;;
21438;SDS011;10880;50.302;18.736;2023-11-19T13:36:33;28.93;;;13.10;;
21438;SDS011;10880;50.302;18.736;2023-11-19T13:39:00;29.23;;;13.87;;
21438;SDS011;10880;50.302;18.736;2023-11-19T13:41:29;30.20;;;14.03;;
21438;SDS011;10880;50.302;18.736;2023-11-19T13:43:55;29.17;;;13.83;;
21438;SDS011;10880;50.302;18.736;2023-11-19T13:46:24;21.33;;;9.87;;
21438;SDS011;10880;50.302;18.736;2023-11-19T13:48:51;31.13;;;14.23;;
21438;SDS011;10880;50.302;18.736;2023-11-19T13:51:17;26.03;;;13.57;;
21438;SDS011;10880;50.302;18.736;2023-11-19T13:53:44;25.73;;;11.93;;
21438;SDS011;10880;50.302;18.736;2023-11-19T13:56:10;23.70;;;12.30;;
21438;SDS011;10880;50.302;18.736;2023-11-19T13:58:37;24.07;;;10.97;;
21438;SDS011;10880;50.302;18.736;2023-11-19T14:01:04;25.23;;;12.77;;
21438;SDS011;10880;50.302;18.736;2023-11-19T14:03:31;23.13;;;10.90;;
21438;SDS011;10880;50.302;18.736;2023-11-19T14:05:59;20.93;;;9.93;;
21438;SDS011;10880;50.302;18.736;2023-11-19T14:08:30;25.80;;;11.37;;
21438;SDS011;10880;50.302;18.736;2023-11-19T14:10:57;17.37;;;9.40;;
21438;SDS011;10880;50.302;18.736;2023-11-19T14:13:23;16.87;;;9.43;;
21438;SDS011;10880;50.302;18.736;2023-11-19T14:15:54;14.53;;;7.97;;
21438;SDS011;10880;50.302;18.736;2023-11-19T14:18:21;13.53;;;7.70;;
21438;SDS011;10880;50.302;18.736;2023-11-19T14:20:47;19.40;;;9.00;;
21438;SDS011;10880;50.302;18.736;2023-11-19T14:23:14;14.47;;;7.77;;
21438;SDS011;10880;50.302;18.736;2023-11-19T14:25:41;16.53;;;8.73;;
21438;SDS011;10880;50.302;18.736;2023-11-19T14:28:10;12.83;;;7.43;;
21438;SDS011;10880;50.302;18.736;2023-11-19T14:30:36;19.17;;;9.13;;
21438;SDS011;10880;50.302;18.736;2023-11-19T14:33:04;14.13;;;7.73;;
21438;SDS011;10880;50.302;18.736;2023-11-19T14:35:30;14.40;;;7.07;;
21438;SDS011;10880;50.302;18.736;2023-11-19T14:37:58;11.37;;;6.27;;
21438;SDS011;10880;50.302;18.736;2023-11-19T14:40:25;14.87;;;7.53;;
21438;SDS011;10880;50.302;18.736;2023-11-19T14:42:52;14.67;;;7.77;;
21438;SDS011;10880;50.302;18.736;2023-11-19T14:45:18;15.93;;;7.83;;
21438;SDS011;10880;50.302;18.736;2023-11-19T14:47:45;16.00;;;7.40;;
21438;SDS011;10880;50.302;18.736;2023-11-19T14:50:11;15.60;;;8.20;;
21438;SDS011;10880;50.302;18.736;2023-11-19T14:52:38;14.17;;;7.70;;
21438;SDS011;10880;50.302;18.736;2023-11-19T14:55:05;9.13;;;6.07;;
21438;SDS011;10880;50.302;18.736;2023-11-19T14:57:31;11.00;;;6.10;;
21438;SDS011;10880;50.302;18.736;2023-11-19T14:59:58;9.67;;;5.90;;
21438;SDS011;10880;50.302;18.736;2023-11-19T15:02:24;10.23;;;6.00;;
21438;SDS011;10880;50.302;18.736;2023-11-19T15:04:51;16.60;;;9.40;;
21438;SDS011;10880;50.302;18.736;2023-11-19T15:07:18;12.43;;;7.03;;